Time;durP1;ratioP1;P1;durP2;ratioP2;P2;SDS_P1;SDS_P2;PMS_P1;PMS_P2;Temp;Humidity;BMP_temperature;BMP_pressure;BME280_temperature;BME280_humidity;BME280_pressure;Samples;Min_cycle;Max_cycle;Signal;HPM_P1;HPM_P2
2023/04/24 00:01:54;;;;;;;6.20;1.50;;;;;;;13.03;66.38;95270.09;4990495;28;20173;-70
2023/04/24 00:04:20;;;;;;;2.90;1.47;;;;;;;12.99;67.16;95266.88;4991794;28;20216;-69
2023/04/24 00:06:49;;;;;;;1.90;1.40;;;;;;;13.00;67.15;95278.22;4991696;28;20412;-68
2023/04/24 00:09:14;;;;;;;1.90;1.47;;;;;;;12.97;66.75;95278.44;4990168;28;20216;-68
2023/04/24 00:11:41;;;;;;;2.13;1.23;;;;;;;12.96;67.19;95274.97;4990049;28;20459;-69
2023/04/24 00:14:06;;;;;;;3.93;1.57;;;;;;;12.96;66.83;95261.78;4990192;28;20623;-69
2023/04/24 00:16:32;;;;;;;1.70;1.20;;;;;;;12.95;66.92;95269.81;4988557;28;20486;-69
2023/04/24 00:18:58;;;;;;;1.80;1.50;;;;;;;12.84;67.23;95271.41;4990174;28;20176;-69
2023/04/24 00:21:25;;;;;;;1.90;1.70;;;;;;;12.91;66.69;95267.38;4989742;28;20188;-69
2023/04/24 00:23:51;;;;;;;1.77;1.33;;;;;;;12.80;68.02;95269.09;4989524;28;20188;-68
2023/04/24 00:26:16;;;;;;;2.50;1.50;;;;;;;12.85;67.27;95267.84;4989353;28;20501;-68
2023/04/24 00:28:41;;;;;;;2.20;2.00;;;;;;;12.81;67.88;95263.72;4989594;28;20191;-69
2023/04/24 00:31:07;;;;;;;3.27;1.53;;;;;;;12.78;67.42;95261.34;4989561;28;20177;-69
2023/04/24 00:33:32;;;;;;;2.87;1.53;;;;;;;12.86;67.73;95266.88;4989686;28;20192;-69
2023/04/24 00:35:58;;;;;;;1.60;1.23;;;;;;;12.91;67.55;95267.38;4989436;28;20185;-68
2023/04/24 00:38:23;;;;;;;2.20;1.97;;;;;;;12.84;68.34;95260.88;4989588;28;20181;-69
2023/04/24 00:40:50;;;;;;;1.47;1.10;;;;;;;12.85;67.59;95259.06;4989295;28;20188;-69
2023/04/24 00:43:16;;;;;;;1.97;1.40;;;;;;;12.77;67.77;95258.78;4989427;28;20234;-68
2023/04/24 00:45:41;;;;;;;2.53;2.10;;;;;;;12.95;67.16;95257.50;4987710;28;20463;-68
2023/04/24 00:48:07;;;;;;;2.23;1.73;;;;;;;12.75;68.11;95256.25;4989268;28;20420;-68
2023/04/24 00:50:33;;;;;;;1.97;1.63;;;;;;;12.79;68.03;95247.19;4989195;28;20181;-68
2023/04/24 00:52:58;;;;;;;6.07;1.93;;;;;;;12.71;68.47;95245.13;4987874;28;20200;-68
2023/04/24 00:55:25;;;;;;;2.63;1.63;;;;;;;12.74;68.35;95244.06;4989033;28;20531;-69
2023/04/24 00:57:51;;;;;;;3.60;1.50;;;;;;;12.77;68.00;95240.38;4988839;28;20169;-69
2023/04/24 01:00:17;;;;;;;2.50;1.90;;;;;;;12.77;67.96;95233.31;4989098;28;20495;-69
2023/04/24 01:02:44;;;;;;;5.27;1.53;;;;;;;12.81;67.55;95234.78;4989040;28;20694;-69
2023/04/24 01:05:11;;;;;;;1.60;1.20;;;;;;;12.83;67.45;95246.03;4988802;28;20208;-68
2023/04/24 01:07:38;;;;;;;5.23;1.50;;;;;;;12.69;68.33;95243.56;4988826;28;20506;-69
2023/04/24 01:10:04;;;;;;;3.47;1.73;;;;;;;12.78;68.43;95231.50;4989024;28;20435;-69
2023/04/24 01:12:30;;;;;;;10.60;1.97;;;;;;;12.72;67.44;95230.16;4988850;28;20451;-69
2023/04/24 01:14:56;;;;;;;2.90;1.30;;;;;;;12.68;68.08;95218.16;4992129;28;20269;-69
2023/04/24 01:17:22;;;;;;;1.60;1.40;;;;;;;12.74;68.03;95233.53;4989036;28;20185;-69
2023/04/24 01:19:47;;;;;;;2.87;1.77;;;;;;;12.75;67.82;95229.94;4988516;28;20872;-68
2023/04/24 01:22:16;;;;;;;1.80;1.60;;;;;;;12.79;67.30;95244.56;4988636;28;20678;-69
2023/04/24 01:24:43;;;;;;;3.30;1.60;;;;;;;12.79;68.02;95230.56;4988624;28;20426;-69
2023/04/24 01:27:10;;;;;;;3.30;1.50;;;;;;;12.79;67.76;95227.94;4988110;28;20431;-69
2023/04/24 01:29:36;;;;;;;3.80;1.57;;;;;;;12.76;67.99;95215.84;4988799;28;20443;-69
2023/04/24 01:32:02;;;;;;;2.37;1.60;;;;;;;12.74;67.88;95216.91;4988308;28;20467;-69
2023/04/24 01:34:28;;;;;;;2.40;2.00;;;;;;;12.70;67.87;95211.00;4988499;28;20514;-69
2023/04/24 01:36:54;;;;;;;1.80;1.60;;;;;;;12.68;68.47;95215.53;4988086;28;20431;-69
2023/04/24 01:39:20;;;;;;;2.27;1.63;;;;;;;12.17;70.04;95216.47;4988165;28;20209;-69
2023/04/24 01:41:46;;;;;;;4.20;1.90;;;;;;;12.52;69.23;95217.56;4988093;28;20173;-69
2023/04/24 01:44:11;;;;;;;4.83;1.73;;;;;;;12.65;68.42;95211.31;4988335;28;20464;-69
2023/04/24 01:46:37;;;;;;;3.30;1.93;;;;;;;12.75;67.96;95218.56;4987797;28;20173;-69
2023/04/24 01:49:03;;;;;;;2.80;1.60;;;;;;;12.78;67.65;95219.22;4986945;28;20187;-69
2023/04/24 01:51:28;;;;;;;2.57;1.80;;;;;;;12.69;67.94;95228.59;4988298;28;20917;-69
2023/04/24 01:53:55;;;;;;;5.10;1.90;;;;;;;12.75;67.57;95222.03;4988283;28;20203;-69
2023/04/24 01:56:22;;;;;;;2.23;2.00;;;;;;;12.74;67.80;95222.16;4987945;28;20169;-69
2023/04/24 01:58:49;;;;;;;3.00;1.83;;;;;;;12.70;67.82;95221.53;4988211;28;20909;-69
2023/04/24 02:01:18;;;;;;;5.20;2.37;;;;;;;12.65;68.05;95221.03;4987953;28;20427;-70
2023/04/24 02:03:44;;;;;;;3.30;2.20;;;;;;;12.70;68.06;95232.88;4987766;28;20483;-69
2023/04/24 02:06:09;;;;;;;2.97;1.90;;;;;;;12.63;68.01;95226.38;4987540;28;20430;-70
2023/04/24 02:08:35;;;;;;;3.00;2.00;;;;;;;12.69;67.96;95228.59;4987998;28;20634;-69
2023/04/24 02:11:02;;;;;;;3.63;1.87;;;;;;;12.66;67.78;95227.94;4987977;28;20176;-69
2023/04/24 02:13:27;;;;;;;5.57;1.80;;;;;;;12.60;67.86;95228.41;4987616;28;20284;-69
2023/04/24 02:15:53;;;;;;;4.23;2.17;;;;;;;12.57;67.93;95220.75;4987487;28;20416;-69
2023/04/24 02:18:18;;;;;;;3.57;1.93;;;;;;;12.58;67.67;95230.31;4988007;28;20177;-69
2023/04/24 02:20:43;;;;;;;3.27;1.60;;;;;;;12.63;67.00;95225.56;4987882;28;21091;-69
2023/04/24 02:23:09;;;;;;;4.63;1.70;;;;;;;12.54;68.27;95226.19;4987916;28;20231;-68
2023/04/24 02:25:34;;;;;;;2.30;1.50;;;;;;;12.51;67.52;95232.50;4987495;28;20615;-68
2023/04/24 02:28:00;;;;;;;3.50;1.83;;;;;;;12.49;67.78;95221.25;4987663;28;20252;-67
2023/04/24 02:30:26;;;;;;;4.20;1.67;;;;;;;12.55;67.27;95231.34;4986732;28;20189;-68
2023/04/24 02:32:51;;;;;;;2.70;1.37;;;;;;;12.48;67.50;95225.69;4987684;28;20624;-68
2023/04/24 02:35:17;;;;;;;2.90;2.60;;;;;;;12.54;67.32;95232.28;4987885;28;20181;-68
2023/04/24 02:37:42;;;;;;;2.73;1.80;;;;;;;12.48;66.64;95223.06;4987664;28;20188;-68
2023/04/24 02:40:08;;;;;;;3.20;1.50;;;;;;;12.50;66.70;95223.78;4989878;28;20692;-68
2023/04/24 02:42:34;;;;;;;6.73;2.10;;;;;;;12.46;67.23;95219.69;4992120;28;20299;-68
2023/04/24 02:45:01;;;;;;;2.90;1.73;;;;;;;12.43;66.92;95222.53;4989993;28;20500;-68
2023/04/24 02:47:26;;;;;;;2.80;1.70;;;;;;;12.37;66.97;95216.84;4992631;28;20177;-68
2023/04/24 02:49:52;;;;;;;1.87;1.47;;;;;;;12.48;66.61;95222.22;4993040;28;20412;-68
2023/04/24 02:52:17;;;;;;;5.80;1.90;;;;;;;12.38;67.20;95221.16;4993397;28;20662;-67
2023/04/24 02:54:43;;;;;;;1.80;1.30;;;;;;;12.46;66.22;95216.22;4991680;28;20227;-69
2023/04/24 02:57:08;;;;;;;1.90;1.40;;;;;;;12.34;67.49;95220.53;4991825;28;20169;-70
2023/04/24 02:59:34;;;;;;;2.17;1.47;;;;;;;12.30;66.74;95219.06;4991595;28;20177;-69
2023/04/24 03:01:59;;;;;;;11.30;2.33;;;;;;;12.24;67.31;95222.16;4991333;28;20204;-69
2023/04/24 03:04:26;;;;;;;2.63;1.30;;;;;;;12.34;66.73;95222.34;5009017;28;20200;-69
2023/04/24 03:06:52;;;;;;;4.50;2.40;;;;;;;12.35;67.22;95224.00;5010564;28;20456;-69
2023/04/24 03:09:18;;;;;;;6.27;1.37;;;;;;;12.27;67.72;95209.59;5011148;28;20407;-69
2023/04/24 03:11:44;;;;;;;2.07;1.47;;;;;;;12.27;67.50;95217.50;5011010;28;20542;-69
2023/04/24 03:14:09;;;;;;;3.10;1.77;;;;;;;12.21;68.07;95217.94;5011251;28;20541;-70
2023/04/24 03:16:35;;;;;;;5.33;2.20;;;;;;;12.23;67.86;95223.06;5010597;28;20222;-69
2023/04/24 03:19:00;;;;;;;7.33;1.77;;;;;;;12.20;68.10;95210.97;5010751;28;20173;-70
2023/04/24 03:21:26;;;;;;;3.07;1.70;;;;;;;12.25;67.94;95222.03;5010895;28;20184;-70
2023/04/24 03:23:52;;;;;;;2.80;1.97;;;;;;;12.23;68.30;95215.19;5010467;28;20676;-69
2023/04/24 03:26:17;;;;;;;3.30;2.13;;;;;;;12.32;68.19;95211.91;5010816;28;20179;-69
2023/04/24 03:28:42;;;;;;;2.43;1.77;;;;;;;12.28;68.27;95210.44;5010727;28;20172;-69
2023/04/24 03:31:08;;;;;;;4.40;1.90;;;;;;;12.19;68.30;95206.69;5003533;28;20178;-70
2023/04/24 03:33:33;;;;;;;3.57;2.67;;;;;;;12.18;69.07;95204.16;4990679;28;20236;-68
2023/04/24 03:35:59;;;;;;;4.90;2.30;;;;;;;12.18;68.88;95214.66;4990622;28;20891;-68
2023/04/24 03:38:24;;;;;;;3.53;2.00;;;;;;;12.20;68.73;95218.88;4990816;28;20172;-69
2023/04/24 03:40:50;;;;;;;3.80;2.53;;;;;;;12.15;69.01;95220.97;4991100;28;20673;-69
2023/04/24 03:43:15;;;;;;;6.13;2.70;;;;;;;12.22;68.51;95211.72;4991435;28;20189;-69
2023/04/24 03:45:41;;;;;;;9.63;2.97;;;;;;;12.25;68.73;95222.03;4991982;28;20283;-69
2023/04/24 03:48:07;;;;;;;6.50;2.60;;;;;;;12.25;69.00;95215.91;4991591;28;20211;-70
2023/04/24 03:50:32;;;;;;;7.10;3.70;;;;;;;12.17;69.85;95213.84;4990662;28;20638;-69
2023/04/24 03:52:58;;;;;;;3.07;2.77;;;;;;;12.20;69.15;95223.28;4990623;28;20427;-69
2023/04/24 03:55:23;;;;;;;7.50;3.63;;;;;;;12.17;69.44;95224.34;4990806;28;20161;-69
2023/04/24 03:57:49;;;;;;;10.77;3.73;;;;;;;12.15;69.69;95220.16;4990239;28;20175;-69
2023/04/24 04:00:15;;;;;;;5.73;3.87;;;;;;;12.13;69.42;95219.41;4990221;28;20595;-69
2023/04/24 04:02:41;;;;;;;5.57;2.90;;;;;;;12.27;69.13;95222.75;4988844;28;20205;-69
2023/04/24 04:05:07;;;;;;;3.90;2.80;;;;;;;12.16;69.93;95227.06;4993814;28;20456;-69
2023/04/24 04:07:33;;;;;;;5.60;3.40;;;;;;;12.12;69.81;95221.19;4990252;28;20324;-68
2023/04/24 04:09:58;;;;;;;11.53;3.60;;;;;;;12.19;69.42;95219.84;4990240;28;20507;-69
2023/04/24 04:12:24;;;;;;;4.23;2.83;;;;;;;12.12;69.46;95225.59;4990092;28;20235;-69
2023/04/24 04:14:50;;;;;;;5.13;3.70;;;;;;;12.17;69.94;95224.34;4990171;28;20172;-69
2023/04/24 04:17:15;;;;;;;7.20;3.40;;;;;;;12.16;69.08;95222.66;4989566;28;20177;-69
2023/04/24 04:19:40;;;;;;;4.53;2.80;;;;;;;12.14;69.25;95221.06;4989961;28;20240;-71
2023/04/24 04:22:07;;;;;;;2.93;2.63;;;;;;;12.13;69.60;95225.50;4990284;28;20651;-71
2023/04/24 04:24:33;;;;;;;7.10;2.90;;;;;;;12.15;69.25;95230.66;4989934;28;20518;-69
2023/04/24 04:27:00;;;;;;;7.60;3.30;;;;;;;12.28;69.50;95223.59;4989635;28;20420;-69
2023/04/24 04:29:25;;;;;;;2.97;2.50;;;;;;;12.23;69.22;95230.97;4985544;28;20177;-69
2023/04/24 04:31:51;;;;;;;9.33;4.00;;;;;;;12.17;69.42;95234.03;4998069;28;20479;-69
2023/04/24 04:34:16;;;;;;;3.20;2.60;;;;;;;12.16;68.99;95246.31;4989083;28;20173;-69
2023/04/24 04:36:43;;;;;;;8.43;2.70;;;;;;;12.10;69.27;95243.28;4988694;28;20180;-69
2023/04/24 04:39:09;;;;;;;9.63;2.90;;;;;;;12.13;68.97;95243.91;4988981;28;20165;-69
2023/04/24 04:41:37;;;;;;;5.70;2.30;;;;;;;12.17;68.60;95258.53;4987993;28;20431;-69
2023/04/24 04:44:04;;;;;;;9.43;3.03;;;;;;;12.16;68.51;95245.50;4989004;28;20204;-68
2023/04/24 04:46:32;;;;;;;7.93;3.20;;;;;;;12.17;69.71;95249.81;4989417;28;20411;-68
2023/04/24 04:48:59;;;;;;;29.63;4.20;;;;;;;12.17;68.87;95250.66;4988971;28;20416;-68
2023/04/24 04:51:24;;;;;;;5.53;2.77;;;;;;;12.08;69.25;95238.97;4987112;28;20412;-68
2023/04/24 04:53:50;;;;;;;6.23;2.50;;;;;;;12.06;69.00;95250.53;4986848;28;20512;-67
2023/04/24 04:56:15;;;;;;;5.53;2.13;;;;;;;12.09;69.07;95260.84;4986638;28;20169;-68
2023/04/24 04:58:41;;;;;;;9.17;3.57;;;;;;;12.13;68.52;95262.31;4986725;28;20256;-68
2023/04/24 05:01:06;;;;;;;6.20;2.70;;;;;;;12.13;68.23;95251.81;4986508;28;20165;-69
2023/04/24 05:03:32;;;;;;;6.67;2.60;;;;;;;12.10;67.86;95249.38;4984768;28;20197;-69
2023/04/24 05:05:58;;;;;;;4.80;2.23;;;;;;;12.15;67.40;95249.91;4991530;28;20247;-68
2023/04/24 05:08:23;;;;;;;5.03;2.60;;;;;;;12.15;68.30;95262.22;4980201;28;20181;-67
2023/04/24 05:10:49;;;;;;;13.63;3.47;;;;;;;12.16;67.76;95269.16;4982347;28;20180;-68
2023/04/24 05:13:14;;;;;;;21.10;3.23;;;;;;;12.22;67.33;95268.75;4980559;28;20612;-67
2023/04/24 05:15:43;;;;;;;47.33;6.00;;;;;;;12.17;67.66;95276.13;4985494;28;20512;-67
2023/04/24 05:18:08;;;;;;;9.50;2.67;;;;;;;12.22;67.61;95276.63;4991414;28;20208;-67
2023/04/24 05:20:34;;;;;;;5.27;2.13;;;;;;;12.22;66.58;95287.16;4985069;28;20928;-67
2023/04/24 05:23:01;;;;;;;5.17;2.03;;;;;;;12.18;67.13;95275.16;4972029;28;20231;-68
2023/04/24 05:25:27;;;;;;;11.77;2.20;;;;;;;12.24;67.03;95274.75;4981591;28;20257;-69
2023/04/24 05:27:53;;;;;;;4.20;1.87;;;;;;;12.15;66.53;95276.22;4983438;28;20929;-69
2023/04/24 05:30:19;;;;;;;19.77;3.17;;;;;;;12.20;66.46;95271.47;4982825;28;20619;-69
2023/04/24 05:32:45;;;;;;;4.40;1.70;;;;;;;12.21;66.75;95272.31;4977319;28;20506;-69
2023/04/24 05:35:11;;;;;;;8.03;1.70;;;;;;;12.12;65.87;95276.44;4975131;28;20432;-69
2023/04/24 05:37:37;;;;;;;24.90;2.73;;;;;;;12.23;66.35;95278.31;4973803;28;20445;-67
2023/04/24 05:40:05;;;;;;;2.17;1.30;;;;;;;12.18;65.70;95278.63;4984678;28;20490;-70
2023/04/24 05:42:30;;;;;;;3.97;1.77;;;;;;;12.20;65.99;95281.16;4982046;28;20201;-69
2023/04/24 05:44:56;;;;;;;1.77;1.40;;;;;;;12.25;65.91;95289.56;4968027;28;20530;-69
2023/04/24 05:47:21;;;;;;;23.07;3.40;;;;;;;12.26;65.18;95289.47;4970735;28;20189;-70
2023/04/24 05:49:47;;;;;;;7.63;1.90;;;;;;;12.31;65.02;95283.91;4993845;28;20654;-70
2023/04/24 05:52:13;;;;;;;7.10;2.20;;;;;;;12.22;65.45;95290.63;4978056;28;20734;-68
2023/04/24 05:54:38;;;;;;;14.53;2.00;;;;;;;12.18;65.74;95298.81;4978599;28;20177;-69
2023/04/24 05:57:07;;;;;;;11.17;1.90;;;;;;;12.29;64.92;95299.78;4980246;28;20212;-69
2023/04/24 05:59:33;;;;;;;9.23;1.97;;;;;;;12.24;65.00;95307.16;4975814;28;20181;-69
2023/04/24 06:01:59;;;;;;;18.40;2.87;;;;;;;12.29;64.62;95315.56;4978855;28;20428;-69
2023/04/24 06:04:25;;;;;;;1.77;1.20;;;;;;;12.27;64.19;95314.00;4985301;28;20452;-69
2023/04/24 06:06:55;;;;;;;1.60;1.10;;;;;;;12.25;64.65;95315.88;4984959;28;20173;-69
2023/04/24 06:09:21;;;;;;;5.77;2.60;;;;;;;12.28;64.12;95320.91;4986310;28;20404;-69
2023/04/24 06:11:47;;;;;;;5.53;1.60;;;;;;;12.32;64.31;95326.84;4986668;28;20416;-69
2023/04/24 06:14:12;;;;;;;5.00;1.50;;;;;;;12.16;65.05;95333.13;4984688;28;20406;-69
2023/04/24 06:16:38;;;;;;;8.07;1.60;;;;;;;12.14;65.76;95339.41;4985423;28;20240;-69
2023/04/24 06:19:04;;;;;;;4.47;2.00;;;;;;;12.18;66.88;95360.16;4985421;28;20161;-69
2023/04/24 06:21:29;;;;;;;4.67;1.70;;;;;;;11.97;68.21;95380.81;4985762;28;20738;-69
2023/04/24 06:23:55;;;;;;;3.47;1.70;;;;;;;11.75;65.59;95364.75;4985171;28;20251;-69
2023/04/24 06:26:22;;;;;;;2.20;1.70;;;;;;;11.76;65.98;95350.66;4985031;28;20267;-69
2023/04/24 06:28:47;;;;;;;7.17;1.67;;;;;;;11.80;62.48;95347.72;4985345;28;20415;-69
2023/04/24 06:31:13;;;;;;;5.13;1.77;;;;;;;11.77;62.59;95361.09;4985089;28;20412;-69
2023/04/24 06:33:38;;;;;;;4.70;2.43;;;;;;;11.81;63.12;95356.44;4986292;28;20267;-69
2023/04/24 06:36:04;;;;;;;11.33;2.27;;;;;;;11.72;62.40;95349.19;4987422;28;20971;-69
2023/04/24 06:38:29;;;;;;;2.30;2.10;;;;;;;11.86;61.91;95355.22;4987967;28;20177;-69
2023/04/24 06:40:55;;;;;;;5.93;1.80;;;;;;;11.86;61.78;95362.28;4987577;28;20192;-69
2023/04/24 06:43:20;;;;;;;5.57;1.90;;;;;;;11.83;60.79;95362.47;4987520;28;20204;-69
2023/04/24 06:45:46;;;;;;;5.23;2.20;;;;;;;11.80;60.93;95375.81;4987468;28;20200;-69
2023/04/24 06:48:12;;;;;;;4.97;2.27;;;;;;;11.74;61.87;95363.06;4987404;28;20292;-69
2023/04/24 06:50:37;;;;;;;3.47;1.30;;;;;;;11.74;61.41;95361.28;4987649;28;20520;-69
2023/04/24 06:53:03;;;;;;;10.10;2.20;;;;;;;11.75;62.50;95364.75;4987758;28;20341;-68
2023/04/24 06:55:29;;;;;;;9.23;2.20;;;;;;;11.78;62.15;95360.13;4987748;28;20169;-68
2023/04/24 06:57:54;;;;;;;3.97;1.73;;;;;;;11.71;63.21;95363.25;4987427;28;20179;-68
2023/04/24 07:00:20;;;;;;;4.53;1.87;;;;;;;11.77;62.79;95378.66;4987842;28;20183;-69
2023/04/24 07:02:46;;;;;;;7.50;3.23;;;;;;;11.88;61.15;95372.69;4987773;28;20227;-68
2023/04/24 07:05:12;;;;;;;5.63;2.00;;;;;;;11.90;62.13;95376.91;4987740;28;20204;-67
2023/04/24 07:07:40;;;;;;;6.00;3.83;;;;;;;11.92;61.73;95377.66;4987647;28;20209;-67
2023/04/24 07:10:06;;;;;;;6.30;2.03;;;;;;;12.01;62.35;95382.31;4987735;28;20482;-69
2023/04/24 07:12:32;;;;;;;4.80;3.07;;;;;;;11.93;62.53;95374.09;4987850;28;20428;-67
2023/04/24 07:14:57;;;;;;;6.30;2.47;;;;;;;11.99;62.67;95373.69;4988025;28;20412;-68
2023/04/24 07:17:23;;;;;;;7.20;2.10;;;;;;;11.78;63.71;95370.63;4988169;28;20979;-67
2023/04/24 07:19:48;;;;;;;16.13;3.93;;;;;;;12.11;63.23;95381.72;4994510;28;20173;-68
2023/04/24 07:22:16;;;;;;;5.40;2.70;;;;;;;12.19;61.98;95389.91;4995237;28;20235;-67
2023/04/24 07:24:43;;;;;;;5.90;2.47;;;;;;;12.36;61.21;95379.13;4993003;28;20200;-68
2023/04/24 07:27:08;;;;;;;4.47;2.07;;;;;;;12.43;59.61;95393.56;4997126;28;20423;-67
2023/04/24 07:29:35;;;;;;;2.93;1.90;;;;;;;12.60;59.88;95389.78;4997907;28;20420;-68
2023/04/24 07:32:01;;;;;;;2.10;1.90;;;;;;;13.00;59.52;95386.22;4998575;28;20629;-67
2023/04/24 07:34:26;;;;;;;2.60;1.83;;;;;;;13.42;58.01;95385.00;4997612;28;20408;-67
2023/04/24 07:36:52;;;;;;;3.07;2.07;;;;;;;13.28;57.31;95390.41;4990790;28;20184;-67
2023/04/24 07:39:18;;;;;;;7.93;2.23;;;;;;;13.31;57.87;95391.03;4990693;28;20181;-67
2023/04/24 07:41:43;;;;;;;12.73;2.77;;;;;;;13.34;56.47;95388.16;4990841;28;20177;-67
2023/04/24 07:44:08;;;;;;;6.90;2.47;;;;;;;14.12;56.93;95396.63;4991013;28;20203;-67
2023/04/24 07:46:34;;;;;;;6.30;2.07;;;;;;;14.75;54.44;95387.50;4991201;28;20177;-67
2023/04/24 07:49:01;;;;;;;3.90;1.97;;;;;;;15.35;52.96;95388.09;4990881;28;20532;-69
2023/04/24 07:51:30;;;;;;;6.37;2.60;;;;;;;15.56;51.41;95387.38;4990772;28;20173;-67
2023/04/24 07:53:55;;;;;;;7.53;3.33;;;;;;;15.52;52.02;95393.88;4990563;28;21063;-67
2023/04/24 07:56:21;;;;;;;18.97;3.97;;;;;;;16.11;51.80;95396.19;4990221;28;20499;-67
2023/04/24 07:58:46;;;;;;;6.53;2.80;;;;;;;16.04;50.17;95395.84;4990749;28;20172;-69
2023/04/24 08:01:12;;;;;;;5.03;2.63;;;;;;;15.93;48.71;95395.88;4990603;28;20180;-69
2023/04/24 08:03:37;;;;;;;3.60;2.60;;;;;;;15.46;49.80;95403.97;4990381;28;20207;-68
2023/04/24 08:06:03;;;;;;;8.80;3.33;;;;;;;15.28;50.76;95401.94;4988647;28;20176;-68
2023/04/24 08:08:28;;;;;;;9.03;2.83;;;;;;;14.96;51.54;95400.84;4990442;28;20553;-68
2023/04/24 08:10:54;;;;;;;6.77;3.40;;;;;;;15.12;51.58;95404.94;4990616;28;20208;-68
2023/04/24 08:13:20;;;;;;;8.80;3.30;;;;;;;15.19;51.65;95401.72;4990847;28;20228;-68
2023/04/24 08:15:46;;;;;;;3.50;3.00;;;;;;;15.61;51.36;95401.06;4990033;28;20196;-68
2023/04/24 08:18:15;;;;;;;4.30;2.90;;;;;;;15.29;51.49;95403.63;4989769;28;20173;-68
2023/04/24 08:20:41;;;;;;;6.47;2.60;;;;;;;15.05;48.79;95394.03;4990142;28;20184;-67
2023/04/24 08:23:06;;;;;;;8.13;2.97;;;;;;;15.01;47.12;95401.34;4990155;28;20436;-69
2023/04/24 08:25:32;;;;;;;10.73;3.07;;;;;;;15.20;46.76;95395.44;4990412;28;20201;-68
2023/04/24 08:27:58;;;;;;;5.80;2.57;;;;;;;14.96;45.76;95397.38;4990035;28;20204;-68
2023/04/24 08:30:23;;;;;;;6.67;2.43;;;;;;;14.89;46.02;95386.44;4990759;28;20655;-69
2023/04/24 08:32:49;;;;;;;18.53;2.87;;;;;;;14.95;46.34;95391.25;4992744;28;20505;-68
2023/04/24 08:35:14;;;;;;;14.30;2.80;;;;;;;15.48;45.06;95398.56;4991823;28;20169;-68
2023/04/24 08:37:40;;;;;;;30.47;7.63;;;;;;;16.08;42.97;95385.84;4991321;28;20180;-68
2023/04/24 08:40:16;;;;;;;19.80;4.13;;;;;;;16.20;42.68;95384.81;4991981;28;20281;-68
2023/04/24 08:42:45;;;;;;;23.13;4.23;;;;;;;16.35;42.80;95395.13;4989068;28;20204;-67
2023/04/24 08:45:12;;;;;;;11.13;2.87;;;;;;;16.69;41.85;95383.38;4989382;28;20470;-69
2023/04/24 08:47:38;;;;;;;7.80;2.70;;;;;;;16.82;41.39;95387.66;4989109;28;20423;-69
2023/04/24 08:50:05;;;;;;;6.73;2.47;;;;;;;16.36;43.06;95429.41;4989483;28;20412;-67
2023/04/24 08:52:33;;;;;;;4.13;2.23;;;;;;;15.10;45.71;95447.34;4989802;28;20448;-69
2023/04/24 08:55:01;;;;;;;11.67;2.70;;;;;;;14.48;49.33;95456.41;4989091;28;20966;-69
2023/04/24 08:57:27;;;;;;;13.83;2.80;;;;;;;13.99;51.49;95446.81;4989023;28;20412;-68
2023/04/24 08:59:53;;;;;;;15.97;3.50;;;;;;;13.58;53.20;95455.06;4989293;28;20997;-68
2023/04/24 09:02:19;;;;;;;7.33;3.20;;;;;;;13.49;53.54;95446.88;4989301;28;20459;-68
2023/04/24 09:04:47;;;;;;;13.77;3.27;;;;;;;13.71;54.21;95451.44;4988953;28;21300;-68
2023/04/24 09:07:14;;;;;;;18.60;5.03;;;;;;;14.47;50.75;95449.44;4988743;28;20683;-68
2023/04/24 09:09:41;;;;;;;8.63;2.50;;;;;;;14.70;49.34;95454.84;4989127;28;21118;-68
2023/04/24 09:12:09;;;;;;;6.00;2.90;;;;;;;14.53;48.67;95450.78;4989030;28;20439;-68
2023/04/24 09:14:36;;;;;;;3.07;2.50;;;;;;;14.63;48.06;95456.25;4989126;28;20829;-68
2023/04/24 09:17:02;;;;;;;35.17;6.30;;;;;;;14.64;49.58;95450.84;4988722;28;20420;-66
2023/04/24 09:19:27;;;;;;;6.23;2.23;;;;;;;14.34;48.60;95446.88;4988839;28;20427;-66
2023/04/24 09:21:53;;;;;;;6.90;2.73;;;;;;;14.17;49.94;95441.97;4988609;28;20215;-69
2023/04/24 09:24:22;;;;;;;21.53;3.80;;;;;;;14.16;49.70;95435.88;4988910;28;20272;-67
2023/04/24 09:26:48;;;;;;;6.43;2.33;;;;;;;14.22;49.52;95445.16;4988547;28;20431;-66
2023/04/24 09:29:17;;;;;;;3.77;2.10;;;;;;;14.12;48.42;95438.84;4988812;28;20471;-67
2023/04/24 09:31:45;;;;;;;4.10;2.47;;;;;;;14.17;48.57;95442.84;4988561;28;20424;-68
2023/04/24 09:34:10;;;;;;;8.83;4.17;;;;;;;14.50;48.25;95451.84;4988724;28;20813;-67
2023/04/24 09:36:43;;;;;;;12.37;2.77;;;;;;;14.46;46.18;95462.78;4988580;28;20422;-67
2023/04/24 09:39:16;;;;;;;6.40;2.20;;;;;;;14.40;46.63;95442.94;4988740;28;20243;-68
2023/04/24 09:41:52;;;;;;;7.63;2.37;;;;;;;14.67;44.41;95452.41;4988615;28;20466;-68
2023/04/24 09:44:22;;;;;;;5.80;2.40;;;;;;;15.00;44.04;95443.72;4988394;28;20467;-67
2023/04/24 09:46:52;;;;;;;5.07;1.80;;;;;;;15.69;43.02;95450.72;4988285;28;20444;-67
2023/04/24 09:49:25;;;;;;;3.20;2.07;;;;;;;15.88;41.74;95450.97;4988138;28;20849;-67
2023/04/24 09:51:52;;;;;;;6.40;2.20;;;;;;;15.67;41.55;95448.19;4988464;28;20420;-68
2023/04/24 09:54:21;;;;;;;4.93;2.60;;;;;;;15.79;41.07;95446.41;4988056;28;20416;-68
2023/04/24 09:56:49;;;;;;;8.80;2.03;;;;;;;16.08;39.86;95441.41;4988226;28;20408;-68
2023/04/24 09:59:16;;;;;;;5.10;2.90;;;;;;;16.25;39.18;95430.31;4988167;28;20494;-69
2023/04/24 10:01:44;;;;;;;2.37;2.10;;;;;;;15.96;38.81;95453.81;4987912;28;20451;-67
2023/04/24 10:04:20;;;;;;;4.83;2.20;;;;;;;16.26;39.17;95445.22;4987872;28;20471;-67
2023/04/24 10:06:46;;;;;;;7.53;3.20;;;;;;;15.81;39.99;95445.31;4987663;28;20785;-67
2023/04/24 10:09:13;;;;;;;6.33;2.40;;;;;;;15.59;40.13;95456.75;4987828;28;20906;-67
2023/04/24 10:11:43;;;;;;;4.77;2.27;;;;;;;15.12;40.75;95445.44;4988022;28;20770;-68
2023/04/24 10:14:12;;;;;;;9.30;2.77;;;;;;;15.15;41.19;95444.34;4987939;28;20410;-68
2023/04/24 10:16:40;;;;;;;6.83;2.10;;;;;;;15.17;40.61;95447.72;4987418;28;20427;-68
2023/04/24 10:19:06;;;;;;;8.67;2.00;;;;;;;15.24;40.39;95439.19;5002929;28;20444;-68
2023/04/24 10:21:32;;;;;;;5.20;2.23;;;;;;;15.65;38.97;95443.00;4989279;28;20416;-69
2023/04/24 10:23:59;;;;;;;5.30;2.50;;;;;;;15.95;38.22;95443.38;4989332;28;20211;-68
2023/04/24 10:26:26;;;;;;;4.80;1.83;;;;;;;16.10;38.22;95458.00;4988751;28;20891;-69
2023/04/24 10:28:53;;;;;;;5.97;2.60;;;;;;;15.96;38.30;95461.75;4989490;28;20416;-68
2023/04/24 10:31:19;;;;;;;12.07;2.60;;;;;;;16.20;37.16;95458.94;4989454;28;20427;-69
2023/04/24 10:33:45;;;;;;;15.83;3.67;;;;;;;16.32;36.92;95461.56;4989752;28;20444;-68
2023/04/24 10:36:13;;;;;;;6.00;2.40;;;;;;;16.46;36.10;95453.31;4988690;28;20479;-68
2023/04/24 10:38:41;;;;;;;3.13;1.87;;;;;;;16.41;36.53;95458.16;4987993;28;20412;-68
2023/04/24 10:41:16;;;;;;;22.23;4.47;;;;;;;16.63;35.54;95460.72;4987697;28;20438;-68
2023/04/24 10:43:42;;;;;;;4.20;1.93;;;;;;;16.88;35.13;95469.28;4987640;28;20439;-68
2023/04/24 10:46:10;;;;;;;4.33;1.80;;;;;;;16.56;34.14;95464.84;4987106;28;20468;-68
2023/04/24 10:48:35;;;;;;;6.43;2.10;;;;;;;16.28;34.67;95461.81;4987777;28;20489;-68
2023/04/24 10:51:01;;;;;;;9.00;2.37;;;;;;;15.98;36.48;95501.34;4987572;28;20412;-68
2023/04/24 10:53:30;;;;;;;4.20;2.20;;;;;;;15.41;38.40;95503.13;4987121;28;20224;-68
2023/04/24 10:56:04;;;;;;;14.63;2.70;;;;;;;15.11;39.29;95509.78;4986963;28;20178;-68
2023/04/24 10:58:48;;;;;;;4.93;2.50;;;;;;;14.92;38.88;95520.91;4987325;28;21344;-68
2023/04/24 11:01:27;;;;;;;3.30;1.83;;;;;;;14.99;41.72;95514.22;4989426;28;20443;-67
2023/04/24 11:03:58;;;;;;;5.20;2.47;;;;;;;14.99;40.93;95511.56;4991220;28;20885;-68
2023/04/24 11:06:35;;;;;;;6.53;2.50;;;;;;;14.86;41.12;95516.13;4990739;28;20415;-68
2023/04/24 11:09:09;;;;;;;12.43;2.60;;;;;;;14.84;40.78;95520.66;4991120;28;20948;-68
2023/04/24 11:11:37;;;;;;;20.50;3.73;;;;;;;15.52;40.00;95513.72;4990932;28;20976;-68
2023/04/24 11:14:06;;;;;;;42.83;6.90;;;;;;;15.87;38.91;95508.34;4990573;28;20531;-67
2023/04/24 11:16:50;;;;;;;17.43;3.10;;;;;;;16.21;38.66;95502.16;4990925;28;20419;-68
2023/04/24 11:19:16;;;;;;;16.13;3.07;;;;;;;16.06;38.29;95499.78;4990763;28;20419;-68
2023/04/24 11:22:14;;;;;;;9.87;2.57;;;;;;;16.05;38.70;95505.19;4990864;28;21291;-67
2023/04/24 11:24:50;;;;;;;10.43;2.83;;;;;;;15.68;38.40;95515.97;4990681;28;21076;-67
2023/04/24 11:27:19;;;;;;;11.40;3.37;;;;;;;15.53;38.64;95515.38;4990808;28;20412;-68
2023/04/24 11:29:46;;;;;;;4.63;2.53;;;;;;;15.34;36.86;95510.69;4990960;28;20818;-68